OIAM  Mahshahr Airport

Add Bookmark

Iran

Status IATA
Operational MRX
Latitude Longitude
30° 33' 22" N 49° 9' 6" E
30.556200 49.151901
Local (DST + 5) UTC (GMT + 4)
Sep 2, 2014 06:29 Sep 2, 2014 13:59
Sunrise-Sunset Local UTC
Begin Civil Twilight 06:24 01:54
Sunrise 06:49 02:19
Sunset 07:36 15:06
End Civil Twilight 08:01 15:31

Current Weather

METAR Observed VFR
OIAM 021300Z 18014KT CAVOK 43/18 Q0998 Tue, Sep 2, 2014 @ 13:00 UTC
(59 Minutes ago)
Visual Flight Rules
Wind Visibility Clouds Conditions
180° at 14 knots (26 kph) 10 km or more
  • Clear skies
  • No significant weather
Temperatures Readings Precipitation
Current Temp 43°C (109°F)
Dewpoint 18°C (64°F)
Humidity 23%
Altimeter 29.47"Hg
Sea Level Pressure 998mb
Field Elevation 13.12'
None Recorded

Additional weather within a 92.6km radius of OIAM

Map ICAO Location
OIAG 54.4km E (067°)
OIAA 90.7km W (257°)

24 Hour Weather History

Loading
-

24 Hour Weather Graphs

Loading
-

CheckWX.com is intended as a tool to help pilots better visualize weather data. It is not intended as a substitute for an official weather briefing obtained from a Flight Service Station. CheckWX.com does not meet the FAA requirements for an official pre-flight weather briefing. Therefore, it's important that pilots still call and obtain an official FSS pre-flight weather briefing.